MSC Gabriella — 3FRR — position and weather

sailwx.info

Track history (hours):
 
Tides and Currents Weather Stations Pressure Air Temp Water Temp Dewpoint Dewpoint Depression Visibility Wind Speed Wind Dir Waves Ship Positions

MSC Gabriella

Last reported at 2018-Feb-17 21:08 UTC. Time now 2018-Feb-18 03:25 UTC.
Position N 06°08' E 001°17'.

Length 189 m; draft 7.7 m.

Type: Ship (hazmat cat A). MMSI: 371813424.

Date/timePositionNaut miles runAvg speedWind from/ knotsBaromVisibWave heightAir tempDewpointWater temp
2018-Feb-17 21:08N 06°08' E 001°17'1 4.3
2018-Feb-17 21:00N 06°08' E 001°17'0 0.1
2018-Feb-17 20:28N 06°08' E 001°17'0 0.0
2018-Feb-17 19:58N 06°08' E 001°17'0 0.0
2018-Feb-17 19:25N 06°08' E 001°17'60 2.5
2018-Feb-16 19:31N 05°26' E 000°34'213.0
2018-Feb-16 19:23N 05°26' E 000°32'512.9
2018-Feb-16 19:00N 05°24' E 000°27'713.0
2018-Feb-16 18:30N 05°22' E 000°21'612.8
2018-Feb-16 18:00N 05°19' E 000°15'612.8
2018-Feb-16 17:30N 05°17' E 000°10'612.7
2018-Feb-16 17:00N 05°14' E 000°04'612.7
2018-Feb-16 16:30N 05°12' W 000°02'612.8
2018-Feb-16 16:01N 05°09' W 000°08'712.9
2018-Feb-16 15:30N 05°07' W 000°14'912.8
2018-Feb-16 14:50N 05°04' W 000°22'412.7
2018-Feb-16 14:30N 05°03' W 000°26'612.6
2018-Feb-16 14:01N 05°01' W 000°32'612.5
2018-Feb-16 13:30N 04°59' W 000°38'712.3
2018-Feb-16 12:58N 04°57' W 000°45'612.2
2018-Feb-16 12:30N 04°57' W 000°50'  
Track history (hours):
 
Tides and Currents Weather Stations Pressure Air Temp Water Temp Dewpoint Dewpoint Depression Visibility Wind Speed Wind Dir Waves Ship Positions

MSC Gabriella

Last reported at 2018-Feb-17 21:08 UTC. Time now 2018-Feb-18 03:25 UTC.
Position N 06°08' E 001°17'.

Length 189 m; draft 7.7 m.

Type: Ship (hazmat cat A). MMSI: 371813424.

Date/timePositionNaut miles runAvg speedWind from/ knotsBaromVisibWave heightAir tempDewpointWater temp
2018-Feb-17 21:08N 06°08' E 001°17'1 4.3
2018-Feb-17 21:00N 06°08' E 001°17'0 0.1
2018-Feb-17 20:28N 06°08' E 001°17'0 0.0
2018-Feb-17 19:58N 06°08' E 001°17'0 0.0
2018-Feb-17 19:25N 06°08' E 001°17'60 2.5
2018-Feb-16 19:31N 05°26' E 000°34'213.0
2018-Feb-16 19:23N 05°26' E 000°32'512.9
2018-Feb-16 19:00N 05°24' E 000°27'713.0
2018-Feb-16 18:30N 05°22' E 000°21'612.8
2018-Feb-16 18:00N 05°19' E 000°15'612.8
2018-Feb-16 17:30N 05°17' E 000°10'612.7
2018-Feb-16 17:00N 05°14' E 000°04'612.7
2018-Feb-16 16:30N 05°12' W 000°02'612.8
2018-Feb-16 16:01N 05°09' W 000°08'712.9
2018-Feb-16 15:30N 05°07' W 000°14'912.8
2018-Feb-16 14:50N 05°04' W 000°22'412.7
2018-Feb-16 14:30N 05°03' W 000°26'612.6
2018-Feb-16 14:01N 05°01' W 000°32'612.5
2018-Feb-16 13:30N 04°59' W 000°38'712.3
2018-Feb-16 12:58N 04°57' W 000°45'612.2
2018-Feb-16 12:30N 04°57' W 000°50'  

Dump ship's entire track history